createdAt,value
2023-01-20T05:02:28.284Z,100156.75
2023-01-20T05:04:58.636Z,100158.97
2023-01-20T05:07:30.139Z,100130.59
2023-01-20T05:09:57.380Z,100167.38
2023-01-20T05:12:24.509Z,100134.38
2023-01-20T05:14:51.585Z,100159.78
2023-01-20T05:17:18.619Z,100151.03
2023-01-20T05:19:45.682Z,100151.31
2023-01-20T05:22:12.325Z,100159.25
2023-01-20T05:24:38.991Z,100164.63
2023-01-20T05:27:05.872Z,100193.97
2023-01-20T05:29:33.815Z,100180.84
2023-01-20T05:32:00.943Z,100146.63
2023-01-20T05:34:27.589Z,100156.03
2023-01-20T05:36:54.371Z,100180.47
2023-01-20T05:39:21.484Z,100163.00
2023-01-20T05:41:48.719Z,100147.44
2023-01-20T05:44:15.635Z,100192.91
2023-01-20T05:46:42.814Z,100185.34
2023-01-20T05:49:11.599Z,100207.69
2023-01-20T05:51:39.313Z,100218.06
2023-01-20T05:54:06.014Z,100163.91
2023-01-20T05:56:32.906Z,100193.06
2023-01-20T05:59:01.264Z,100110.94
2023-01-20T06:01:28.122Z,100145.75
2023-01-20T06:03:55.041Z,100241.81
2023-01-20T06:06:22.206Z,100224.53
2023-01-20T06:08:49.656Z,100184.13
2023-01-20T06:11:18.028Z,100221.09
2023-01-20T06:13:48.076Z,100231.28
2023-01-20T06:16:16.256Z,100200.09
2023-01-20T06:18:42.967Z,100227.66
2023-01-20T06:21:09.666Z,100205.47
2023-01-20T06:23:36.371Z,100252.97
2023-01-20T06:26:04.885Z,100238.53
2023-01-20T06:28:33.684Z,100251.81
2023-01-20T06:31:05.452Z,100275.00
2023-01-20T06:33:33.082Z,100221.78
2023-01-20T06:36:00.072Z,100199.94
2023-01-20T06:38:29.724Z,100245.31
2023-01-20T06:41:00.228Z,100280.16
2023-01-20T06:43:28.981Z,100212.06
2023-01-20T06:46:02.490Z,100288.06
2023-01-20T06:48:29.441Z,100260.34
2023-01-20T06:51:07.159Z,100269.72
2023-01-20T06:53:34.320Z,100288.75
2023-01-20T06:56:01.791Z,100223.06
2023-01-20T06:58:30.363Z,100271.34
2023-01-20T07:00:58.200Z,100295.16
2023-01-20T07:03:25.076Z,100229.13
2023-01-20T07:06:26.534Z,100203.91
2023-01-20T07:08:53.622Z,100241.00
2023-01-20T07:11:20.895Z,100174.97
2023-01-20T07:13:48.176Z,100318.47
2023-01-20T07:16:15.991Z,100241.03
2023-01-20T07:18:43.712Z,100241.44
2023-01-20T07:21:13.616Z,100269.44
2023-01-20T07:23:40.554Z,100236.38
2023-01-20T07:26:08.995Z,100284.22
2023-01-20T07:28:36.192Z,100314.03
2023-01-20T07:31:10.425Z,100291.44
2023-01-20T07:33:37.469Z,100350.97
2023-01-20T07:36:06.921Z,100339.75
2023-01-20T07:38:34.215Z,100299.06
2023-01-20T07:41:04.615Z,100319.81
2023-01-20T07:43:31.754Z,100343.31
2023-01-20T07:45:59.631Z,100309.69
2023-01-20T07:48:26.957Z,100351.88
2023-01-20T07:51:02.948Z,100350.91
2023-01-20T07:53:30.100Z,100385.56
2023-01-20T07:56:00.364Z,100394.94
2023-01-20T07:58:29.676Z,100346.25
2023-01-20T08:00:57.078Z,100276.50
2023-01-20T08:03:26.602Z,100335.97
2023-01-20T08:05:54.018Z,100395.06
2023-01-20T08:08:23.562Z,100390.09
2023-01-20T08:10:54.357Z,100379.34
2023-01-20T08:13:22.513Z,100370.88
2023-01-20T08:15:50.699Z,100392.31
2023-01-20T08:18:17.465Z,100389.09
2023-01-20T08:20:44.698Z,100390.53
2023-01-20T08:23:11.505Z,100401.69
2023-01-20T08:25:38.270Z,100387.09
2023-01-20T08:28:05.636Z,100319.66
2023-01-20T08:30:35.311Z,100335.59
2023-01-20T08:33:03.288Z,100391.78
2023-01-20T08:35:30.437Z,100303.94
2023-01-20T08:37:57.557Z,100374.19
2023-01-20T08:40:24.762Z,100295.44
2023-01-20T08:42:53.612Z,100381.44
2023-01-20T08:45:20.958Z,100385.09
2023-01-20T08:47:48.952Z,100391.00
2023-01-20T08:50:15.818Z,100407.69
2023-01-20T08:52:44.932Z,100417.19
2023-01-20T08:55:11.975Z,100394.88
2023-01-20T08:57:40.348Z,100404.41
2023-01-20T09:00:08.034Z,100429.63
2023-01-20T09:02:34.963Z,100396.84
2023-01-20T09:05:01.948Z,100445.38
2023-01-20T09:07:28.872Z,100442.41
2023-01-20T09:09:55.660Z,100434.50
2023-01-20T09:12:22.822Z,100464.16
2023-01-20T09:14:50.807Z,100422.31
2023-01-20T09:17:17.831Z,100468.38
2023-01-20T09:19:44.819Z,100397.69
2023-01-20T09:22:12.842Z,100473.41
2023-01-20T09:24:40.383Z,100354.34
2023-01-20T09:27:07.157Z,100476.78
2023-01-20T09:29:34.853Z,100423.63
2023-01-20T09:32:02.625Z,100480.00
2023-01-20T09:34:33.169Z,100487.16
2023-01-20T09:37:27.004Z,100451.41
2023-01-20T09:40:14.452Z,100445.91
2023-01-20T09:43:15.509Z,100482.94
2023-01-20T09:46:09.368Z,100487.38
2023-01-20T09:49:13.023Z,100495.00
2023-01-20T09:52:09.479Z,100494.44
2023-01-20T09:54:44.285Z,100474.25
2023-01-20T09:57:11.043Z,100482.38
2023-01-20T09:59:42.891Z,100415.19
2023-01-20T10:02:17.290Z,100381.69
2023-01-20T10:04:47.147Z,100431.28
2023-01-20T10:07:20.347Z,100489.38
2023-01-20T10:10:20.095Z,100465.91
2023-01-20T10:13:01.340Z,100480.13
2023-01-20T10:15:29.442Z,100499.56
2023-01-20T10:18:11.432Z,100475.44
2023-01-20T10:20:45.698Z,100477.06
2023-01-20T10:23:34.183Z,100496.91
2023-01-20T10:26:33.204Z,100490.00
2023-01-20T10:29:01.539Z,100448.19
2023-01-20T10:31:31.031Z,100452.78
2023-01-20T10:34:01.080Z,100389.81
2023-01-20T10:36:29.872Z,100481.69
2023-01-20T10:39:05.080Z,100489.00
2023-01-20T10:41:31.621Z,100490.25
2023-01-20T10:43:58.435Z,100441.72
2023-01-20T10:46:51.671Z,100432.19
2023-01-20T10:49:40.215Z,100501.69
2023-01-20T10:52:28.234Z,100499.97
2023-01-20T10:55:16.704Z,100461.47
2023-01-20T10:57:43.919Z,100463.97
2023-01-20T11:00:27.378Z,100488.06
2023-01-20T11:02:54.178Z,100490.97
2023-01-20T11:05:29.820Z,100475.56
2023-01-20T11:07:56.895Z,100485.31
2023-01-20T11:10:25.802Z,100498.63
2023-01-20T11:12:54.975Z,100435.38
2023-01-20T11:15:25.377Z,100493.78
2023-01-20T11:18:14.199Z,100510.34
2023-01-20T11:20:56.965Z,100487.63
2023-01-20T11:23:27.323Z,100505.47
2023-01-20T11:25:57.223Z,100451.59
2023-01-20T11:28:25.105Z,100456.47
2023-01-20T11:30:54.109Z,100484.16
2023-01-20T11:33:25.416Z,100498.31
2023-01-20T11:36:19.128Z,100502.84
2023-01-20T11:38:48.101Z,100448.78
2023-01-20T11:41:26.204Z,100500.25
2023-01-20T11:43:56.687Z,100492.28
2023-01-20T11:46:30.725Z,100496.84
2023-01-20T11:49:22.993Z,100472.06
2023-01-20T11:51:56.707Z,100490.03
2023-01-20T11:54:25.303Z,100426.34
2023-01-20T11:56:56.483Z,100423.78
2023-01-20T11:59:30.402Z,100470.91
2023-01-20T12:02:01.873Z,100483.88
2023-01-20T12:05:05.422Z,100507.25
2023-01-20T12:07:33.866Z,100514.22
2023-01-20T12:10:04.688Z,100498.00
2023-01-20T12:13:15.965Z,100502.06
2023-01-20T12:15:44.866Z,100405.41
2023-01-20T12:18:20.094Z,100408.44
2023-01-20T12:20:56.166Z,100469.00
2023-01-20T12:23:49.287Z,100447.50
2023-01-20T12:26:17.384Z,100494.13
2023-01-20T12:29:22.682Z,100518.31
2023-01-20T12:31:49.566Z,100486.34
2023-01-20T12:34:27.562Z,100485.22
2023-01-20T12:37:16.902Z,100519.94
2023-01-20T12:39:56.771Z,100477.56
2023-01-20T12:42:38.740Z,100496.88
2023-01-20T12:45:43.241Z,100527.09
2023-01-20T12:48:31.201Z,100533.69
2023-01-20T12:51:20.647Z,100525.94
2023-01-20T12:54:08.591Z,100479.19
2023-01-20T12:57:04.712Z,100520.25
2023-01-20T12:59:40.335Z,100518.31
2023-01-20T13:02:15.929Z,100520.75
2023-01-20T13:04:55.834Z,100478.25
2023-01-20T13:07:35.180Z,100521.06
2023-01-20T13:10:20.585Z,100525.25
2023-01-20T13:13:12.056Z,100519.81
2023-01-20T13:15:46.223Z,100518.94
2023-01-20T13:18:28.695Z,100522.84
2023-01-20T13:20:55.775Z,100519.75
2023-01-20T13:23:28.641Z,100516.72
2023-01-20T13:25:55.506Z,100519.66
2023-01-20T13:28:24.520Z,100475.84
2023-01-20T13:30:54.587Z,100480.84
2023-01-20T13:33:40.461Z,100404.06
2023-01-20T13:36:17.764Z,100520.91
2023-01-20T13:38:45.431Z,100493.31
2023-01-20T13:41:13.014Z,100472.84
2023-01-20T13:43:43.042Z,100523.19
2023-01-20T13:46:09.927Z,100520.91
2023-01-20T13:48:37.599Z,100515.69
2023-01-20T13:51:19.313Z,100527.44
2023-01-20T13:53:46.380Z,100526.41
2023-01-20T13:56:29.659Z,100501.59
2023-01-20T13:59:00.706Z,100528.19
2023-01-20T14:01:30.700Z,100532.88
2023-01-20T14:04:06.424Z,100528.53
2023-01-20T14:06:36.160Z,100535.97
2023-01-20T14:09:04.896Z,100528.97
2023-01-20T14:11:32.832Z,100525.09
2023-01-20T14:13:59.720Z,100535.63
2023-01-20T14:16:28.685Z,100544.69
2023-01-20T14:18:57.363Z,100504.44
2023-01-20T14:21:25.510Z,100544.84
2023-01-20T14:23:52.671Z,100552.94
2023-01-20T14:26:26.979Z,100559.09
2023-01-20T14:28:58.444Z,100548.72
2023-01-20T14:31:40.778Z,100557.47
2023-01-20T14:34:27.147Z,100559.09
2023-01-20T14:36:55.107Z,100539.25
2023-01-20T14:39:42.293Z,100560.22
2023-01-20T14:42:22.558Z,100564.59
2023-01-20T14:44:52.850Z,100570.72
2023-01-20T14:47:21.144Z,100530.13
2023-01-20T14:49:49.345Z,100542.75
2023-01-20T14:52:28.727Z,100563.09
2023-01-20T14:54:56.552Z,100569.72
2023-01-20T14:57:41.305Z,100567.78
2023-01-20T15:00:20.325Z,100576.84
2023-01-20T15:03:11.353Z,100582.34
2023-01-20T15:05:53.036Z,100520.63
2023-01-20T15:08:25.950Z,100556.56
2023-01-20T15:11:12.192Z,100579.13
2023-01-20T15:13:39.914Z,100554.13
2023-01-20T15:16:19.686Z,100559.81
2023-01-20T15:19:23.174Z,100575.22
2023-01-20T15:21:56.337Z,100571.59
2023-01-20T15:24:25.400Z,100552.94
2023-01-20T15:26:53.764Z,100564.50
2023-01-20T15:29:22.135Z,100563.50
2023-01-20T15:31:49.819Z,100554.78
2023-01-20T15:34:17.007Z,100576.25
2023-01-20T15:36:44.958Z,100577.09
2023-01-20T15:39:20.558Z,100561.84
2023-01-20T15:41:49.882Z,100579.59
2023-01-20T15:44:18.351Z,100537.81
2023-01-20T15:46:45.513Z,100511.41
2023-01-20T15:49:13.062Z,100550.34
2023-01-20T15:51:40.020Z,100583.00
2023-01-20T15:54:11.462Z,100575.97
2023-01-20T15:56:40.558Z,100601.56
2023-01-20T15:59:25.963Z,100584.06
2023-01-20T16:01:53.011Z,100554.00
2023-01-20T16:04:21.321Z,100601.97
2023-01-20T16:06:48.136Z,100600.69
2023-01-20T16:09:22.760Z,100569.81
2023-01-20T16:11:50.899Z,100607.03
2023-01-20T16:14:17.706Z,100613.53
2023-01-20T16:16:44.348Z,100614.00
2023-01-20T16:19:14.551Z,100579.25
2023-01-20T16:21:41.948Z,100627.13
2023-01-20T16:24:10.141Z,100582.34
2023-01-20T16:26:38.016Z,100613.53
2023-01-20T16:29:05.032Z,100532.03
2023-01-20T16:31:33.529Z,100600.13
2023-01-20T16:34:01.914Z,100567.38
2023-01-20T16:36:31.748Z,100616.47
2023-01-20T16:39:01.417Z,100612.91
2023-01-20T16:41:31.018Z,100584.47
2023-01-20T16:43:58.705Z,100528.75
2023-01-20T16:46:27.176Z,100581.50
2023-01-20T16:48:59.288Z,100505.41
2023-01-20T16:51:26.835Z,100585.28
2023-01-20T16:53:54.385Z,100587.00
2023-01-20T16:56:23.907Z,100598.88
2023-01-20T16:58:52.041Z,100535.06
2023-01-20T17:01:24.883Z,100578.06
2023-01-20T17:03:56.148Z,100601.13
2023-01-20T17:06:29.469Z,100646.47
2023-01-20T17:08:57.658Z,100629.59
2023-01-20T17:11:26.083Z,100574.75
2023-01-20T17:13:53.291Z,100637.03
2023-01-20T17:16:22.123Z,100579.09
2023-01-20T17:18:53.417Z,100585.75
2023-01-20T17:21:21.582Z,100633.06
2023-01-20T17:23:52.533Z,100544.72
2023-01-20T17:26:20.065Z,100637.94
2023-01-20T17:28:46.963Z,100580.84
2023-01-20T17:31:14.017Z,100630.75
2023-01-20T17:33:46.609Z,100680.97
2023-01-20T17:36:13.428Z,100584.22
2023-01-20T17:38:43.584Z,100628.81
2023-01-20T17:41:10.827Z,100635.94
2023-01-20T17:43:41.932Z,100633.19
2023-01-20T17:46:16.755Z,100600.97
2023-01-20T17:48:44.408Z,100652.81
2023-01-20T17:51:15.378Z,100577.78
2023-01-20T17:53:45.967Z,100627.59
2023-01-20T17:56:13.971Z,100691.59
2023-01-20T17:58:44.605Z,100648.56
2023-01-20T18:01:22.462Z,100613.28
2023-01-20T18:03:50.616Z,100693.53
2023-01-20T18:06:21.558Z,100650.06
2023-01-20T18:08:54.077Z,100603.22
2023-01-20T18:11:21.960Z,100644.72
2023-01-20T18:13:50.080Z,100660.34
2023-01-20T18:16:18.216Z,100712.78
2023-01-20T18:18:45.583Z,100659.53
2023-01-20T18:21:13.535Z,100680.19
2023-01-20T18:23:40.518Z,100636.41
2023-01-20T18:26:08.045Z,100627.63
2023-01-20T18:28:35.603Z,100625.00
2023-01-20T18:31:08.585Z,100670.66
2023-01-20T18:33:43.588Z,100737.72
2023-01-20T18:36:26.069Z,100635.97
2023-01-20T18:38:55.489Z,100630.91
2023-01-20T18:41:22.882Z,100660.16
2023-01-20T18:43:52.649Z,100618.19
2023-01-20T18:46:19.714Z,100687.31
2023-01-20T18:48:47.398Z,100650.94
2023-01-20T18:51:15.326Z,100699.44
2023-01-20T18:53:43.172Z,100735.88
2023-01-20T18:56:11.593Z,100643.13
2023-01-20T18:58:38.594Z,100697.13
2023-01-20T19:01:08.592Z,100730.38
2023-01-20T19:03:35.835Z,100687.84
2023-01-20T19:06:04.975Z,100656.25
2023-01-20T19:08:34.065Z,100630.28
2023-01-20T19:11:01.683Z,100751.28
2023-01-20T19:13:29.299Z,100643.31
2023-01-20T19:15:56.830Z,100645.94
2023-01-20T19:18:23.646Z,100652.06
2023-01-20T19:20:50.610Z,100727.03
2023-01-20T19:23:17.676Z,100724.28
2023-01-20T19:25:44.625Z,100672.59
2023-01-20T19:28:12.316Z,100697.03
2023-01-20T19:30:39.298Z,100580.84
2023-01-20T19:33:12.167Z,100678.53
2023-01-20T19:35:42.130Z,100658.47
2023-01-20T19:38:11.351Z,100640.44
2023-01-20T19:40:42.780Z,100664.47
2023-01-20T19:43:10.442Z,100747.47
2023-01-20T19:45:45.336Z,100675.47
2023-01-20T19:48:13.047Z,100668.97
2023-01-20T19:50:40.206Z,100613.59
2023-01-20T19:53:07.061Z,100734.69
2023-01-20T19:55:34.599Z,100712.91
2023-01-20T19:58:01.585Z,100744.13
2023-01-20T20:00:28.574Z,100715.75
2023-01-20T20:02:55.923Z,100745.25
2023-01-20T20:05:22.885Z,100671.19
2023-01-20T20:07:51.271Z,100626.03
2023-01-20T20:10:18.907Z,100680.97
2023-01-20T20:12:48.940Z,100686.88
2023-01-20T20:15:16.066Z,100704.13
2023-01-20T20:17:42.914Z,100691.94
2023-01-20T20:20:10.757Z,100718.88
2023-01-20T20:22:37.735Z,100703.75
2023-01-20T20:25:10.525Z,100662.03
2023-01-20T20:27:38.342Z,100741.00
2023-01-20T20:30:07.829Z,100697.94
2023-01-20T20:32:34.730Z,100675.69
2023-01-20T20:35:01.700Z,100721.25
2023-01-20T20:37:28.555Z,100731.63
2023-01-20T20:39:55.495Z,100646.75
2023-01-20T20:42:22.500Z,100687.47
2023-01-20T20:44:49.408Z,100701.63
2023-01-20T20:47:17.135Z,100645.53
2023-01-20T20:49:44.031Z,100766.94
2023-01-20T20:52:11.079Z,100718.22
2023-01-20T20:54:41.578Z,100765.31
2023-01-20T20:57:10.163Z,100658.97
2023-01-20T20:59:47.231Z,100686.16
2023-01-20T21:02:24.933Z,100735.09
2023-01-20T21:04:51.782Z,100672.81
2023-01-20T21:07:19.592Z,100735.59
2023-01-20T21:09:52.224Z,100753.41
2023-01-20T21:12:19.156Z,100740.09
2023-01-20T21:14:55.797Z,100730.31
2023-01-20T21:17:22.743Z,100717.38
2023-01-20T21:19:52.255Z,100683.09
2023-01-20T21:22:20.125Z,100705.59
2023-01-20T21:24:46.915Z,100685.63
2023-01-20T21:27:13.794Z,100692.34
2023-01-20T21:29:40.752Z,100718.03
2023-01-20T21:32:07.720Z,100717.19
2023-01-20T21:34:36.069Z,100717.63
2023-01-20T21:37:03.074Z,100716.91
2023-01-20T21:39:30.030Z,100774.06
2023-01-20T21:41:56.979Z,100760.44
2023-01-20T21:44:29.897Z,100659.38
2023-01-20T21:46:57.222Z,100804.22
2023-01-20T21:49:42.759Z,100715.88
2023-01-20T21:52:32.909Z,100690.47
2023-01-20T21:55:02.604Z,100763.00
2023-01-20T21:57:29.825Z,100683.50
2023-01-20T21:59:57.017Z,100799.75
2023-01-20T22:02:23.814Z,100766.63
2023-01-20T22:04:50.992Z,100778.06
2023-01-20T22:07:17.843Z,100784.06
2023-01-20T22:09:44.544Z,100766.03
2023-01-20T22:12:14.353Z,100815.63
2023-01-20T22:14:47.325Z,100811.25
2023-01-20T22:17:16.711Z,100831.22
2023-01-20T22:19:43.929Z,100771.13
2023-01-20T22:22:10.861Z,100806.38
2023-01-20T22:24:37.522Z,100822.06
2023-01-20T22:27:04.229Z,100790.69
2023-01-20T22:29:31.688Z,100796.19
